sensor_id;sensor_type;location;lat;lon;timestamp;P1;durP1;ratioP1;P2;durP2;ratioP2
12896;SDS011;6516;35.028;32.372;2023-03-21T00:01:12;10.02;;;5.10;;
12896;SDS011;6516;35.028;32.372;2023-03-21T00:03:40;9.88;;;4.60;;
12896;SDS011;6516;35.028;32.372;2023-03-21T00:06:10;10.60;;;5.60;;
12896;SDS011;6516;35.028;32.372;2023-03-21T00:08:39;11.80;;;4.95;;
12896;SDS011;6516;35.028;32.372;2023-03-21T00:11:08;10.63;;;5.18;;
12896;SDS011;6516;35.028;32.372;2023-03-21T00:13:37;14.48;;;5.95;;
12896;SDS011;6516;35.028;32.372;2023-03-21T00:16:07;11.35;;;5.63;;
12896;SDS011;6516;35.028;32.372;2023-03-21T00:18:40;14.37;;;5.50;;
12896;SDS011;6516;35.028;32.372;2023-03-21T00:21:13;12.73;;;5.05;;
12896;SDS011;6516;35.028;32.372;2023-03-21T00:23:42;12.18;;;5.97;;
12896;SDS011;6516;35.028;32.372;2023-03-21T00:26:11;15.48;;;5.40;;
12896;SDS011;6516;35.028;32.372;2023-03-21T00:28:41;10.27;;;5.22;;
12896;SDS011;6516;35.028;32.372;2023-03-21T00:31:10;11.67;;;5.17;;
12896;SDS011;6516;35.028;32.372;2023-03-21T00:33:37;11.40;;;4.82;;
12896;SDS011;6516;35.028;32.372;2023-03-21T00:36:06;11.52;;;5.28;;
12896;SDS011;6516;35.028;32.372;2023-03-21T00:38:37;12.10;;;5.40;;
12896;SDS011;6516;35.028;32.372;2023-03-21T00:41:05;8.52;;;4.60;;
12896;SDS011;6516;35.028;32.372;2023-03-21T00:43:35;13.33;;;4.83;;
12896;SDS011;6516;35.028;32.372;2023-03-21T00:46:07;11.25;;;4.85;;
12896;SDS011;6516;35.028;32.372;2023-03-21T00:48:34;11.68;;;4.75;;
12896;SDS011;6516;35.028;32.372;2023-03-21T00:51:09;9.82;;;5.28;;
12896;SDS011;6516;35.028;32.372;2023-03-21T00:53:42;11.93;;;5.63;;
12896;SDS011;6516;35.028;32.372;2023-03-21T00:56:11;13.67;;;5.87;;
12896;SDS011;6516;35.028;32.372;2023-03-21T00:58:38;13.35;;;5.78;;
12896;SDS011;6516;35.028;32.372;2023-03-21T01:01:06;11.88;;;5.68;;
12896;SDS011;6516;35.028;32.372;2023-03-21T01:03:35;11.32;;;4.95;;
12896;SDS011;6516;35.028;32.372;2023-03-21T01:06:07;10.30;;;5.10;;
12896;SDS011;6516;35.028;32.372;2023-03-21T01:08:38;8.80;;;5.00;;
12896;SDS011;6516;35.028;32.372;2023-03-21T01:11:11;12.07;;;5.60;;
12896;SDS011;6516;35.028;32.372;2023-03-21T01:13:41;12.00;;;5.15;;
12896;SDS011;6516;35.028;32.372;2023-03-21T01:16:09;11.15;;;5.15;;
12896;SDS011;6516;35.028;32.372;2023-03-21T01:18:38;12.27;;;5.20;;
12896;SDS011;6516;35.028;32.372;2023-03-21T01:21:09;15.40;;;6.13;;
12896;SDS011;6516;35.028;32.372;2023-03-21T01:23:39;10.75;;;5.10;;
12896;SDS011;6516;35.028;32.372;2023-03-21T01:26:08;10.10;;;4.88;;
12896;SDS011;6516;35.028;32.372;2023-03-21T01:28:38;11.63;;;5.32;;
12896;SDS011;6516;35.028;32.372;2023-03-21T01:31:08;12.75;;;5.32;;
12896;SDS011;6516;35.028;32.372;2023-03-21T01:33:38;12.97;;;5.33;;
12896;SDS011;6516;35.028;32.372;2023-03-21T01:36:06;9.48;;;5.00;;
12896;SDS011;6516;35.028;32.372;2023-03-21T01:38:43;9.23;;;5.45;;
12896;SDS011;6516;35.028;32.372;2023-03-21T01:41:15;8.80;;;5.00;;
12896;SDS011;6516;35.028;32.372;2023-03-21T01:43:47;9.27;;;4.88;;
12896;SDS011;6516;35.028;32.372;2023-03-21T01:46:21;9.07;;;4.60;;
12896;SDS011;6516;35.028;32.372;2023-03-21T01:49:02;9.88;;;4.78;;
12896;SDS011;6516;35.028;32.372;2023-03-21T01:51:36;9.38;;;4.90;;
12896;SDS011;6516;35.028;32.372;2023-03-21T01:54:08;10.60;;;5.50;;
12896;SDS011;6516;35.028;32.372;2023-03-21T01:56:44;13.20;;;5.72;;
12896;SDS011;6516;35.028;32.372;2023-03-21T01:59:14;12.93;;;5.27;;
12896;SDS011;6516;35.028;32.372;2023-03-21T02:01:47;10.32;;;5.60;;
12896;SDS011;6516;35.028;32.372;2023-03-21T02:04:16;10.10;;;4.97;;
12896;SDS011;6516;35.028;32.372;2023-03-21T02:06:54;12.30;;;5.72;;
12896;SDS011;6516;35.028;32.372;2023-03-21T02:09:27;9.27;;;5.25;;
12896;SDS011;6516;35.028;32.372;2023-03-21T02:12:00;11.40;;;5.00;;
12896;SDS011;6516;35.028;32.372;2023-03-21T02:14:29;12.45;;;6.30;;
12896;SDS011;6516;35.028;32.372;2023-03-21T02:17:03;12.27;;;5.50;;
12896;SDS011;6516;35.028;32.372;2023-03-21T02:19:56;13.82;;;5.75;;
12896;SDS011;6516;35.028;32.372;2023-03-21T02:23:01;10.65;;;5.07;;
12896;SDS011;6516;35.028;32.372;2023-03-21T02:29:43;11.30;;;5.80;;
12896;SDS011;6516;35.028;32.372;2023-03-21T02:32:55;13.25;;;5.15;;
12896;SDS011;6516;35.028;32.372;2023-03-21T02:35:55;14.57;;;5.75;;
12896;SDS011;6516;35.028;32.372;2023-03-21T02:38:44;14.57;;;5.57;;
12896;SDS011;6516;35.028;32.372;2023-03-21T02:41:20;12.87;;;5.20;;
12896;SDS011;6516;35.028;32.372;2023-03-21T02:43:57;11.00;;;5.70;;
12896;SDS011;6516;35.028;32.372;2023-03-21T02:46:33;13.07;;;6.22;;
12896;SDS011;6516;35.028;32.372;2023-03-21T02:49:10;14.00;;;5.60;;
12896;SDS011;6516;35.028;32.372;2023-03-21T02:51:44;14.98;;;6.07;;
12896;SDS011;6516;35.028;32.372;2023-03-21T02:54:16;11.03;;;5.40;;
12896;SDS011;6516;35.028;32.372;2023-03-21T02:56:48;11.20;;;5.40;;
12896;SDS011;6516;35.028;32.372;2023-03-21T02:59:18;14.80;;;5.72;;
12896;SDS011;6516;35.028;32.372;2023-03-21T03:01:49;12.00;;;5.60;;
12896;SDS011;6516;35.028;32.372;2023-03-21T03:04:18;12.00;;;5.80;;
12896;SDS011;6516;35.028;32.372;2023-03-21T03:09:56;12.35;;;5.70;;
12896;SDS011;6516;35.028;32.372;2023-03-21T03:12:40;14.27;;;5.85;;
12896;SDS011;6516;35.028;32.372;2023-03-21T03:15:20;12.60;;;5.63;;
12896;SDS011;6516;35.028;32.372;2023-03-21T03:17:59;14.45;;;6.32;;
12896;SDS011;6516;35.028;32.372;2023-03-21T03:20:38;11.00;;;5.70;;
12896;SDS011;6516;35.028;32.372;2023-03-21T03:23:20;11.25;;;5.60;;
12896;SDS011;6516;35.028;32.372;2023-03-21T03:25:57;11.23;;;5.50;;
12896;SDS011;6516;35.028;32.372;2023-03-21T03:28:30;13.77;;;6.57;;
12896;SDS011;6516;35.028;32.372;2023-03-21T03:31:03;12.10;;;6.05;;
12896;SDS011;6516;35.028;32.372;2023-03-21T03:33:32;10.80;;;6.03;;
12896;SDS011;6516;35.028;32.372;2023-03-21T03:36:05;14.05;;;6.40;;
12896;SDS011;6516;35.028;32.372;2023-03-21T03:38:38;10.80;;;5.72;;
12896;SDS011;6516;35.028;32.372;2023-03-21T03:41:10;14.73;;;6.00;;
12896;SDS011;6516;35.028;32.372;2023-03-21T03:43:44;11.75;;;5.60;;
12896;SDS011;6516;35.028;32.372;2023-03-21T03:46:18;12.27;;;5.87;;
12896;SDS011;6516;35.028;32.372;2023-03-21T03:48:54;12.15;;;5.75;;
12896;SDS011;6516;35.028;32.372;2023-03-21T03:51:27;13.10;;;5.60;;
12896;SDS011;6516;35.028;32.372;2023-03-21T03:54:00;12.23;;;5.43;;
12896;SDS011;6516;35.028;32.372;2023-03-21T03:56:35;13.52;;;5.55;;
12896;SDS011;6516;35.028;32.372;2023-03-21T03:59:03;13.17;;;5.43;;
12896;SDS011;6516;35.028;32.372;2023-03-21T04:01:32;13.20;;;5.60;;
12896;SDS011;6516;35.028;32.372;2023-03-21T04:04:00;12.05;;;5.55;;
12896;SDS011;6516;35.028;32.372;2023-03-21T04:06:28;11.43;;;6.22;;
12896;SDS011;6516;35.028;32.372;2023-03-21T04:08:56;12.70;;;6.25;;
12896;SDS011;6516;35.028;32.372;2023-03-21T04:11:24;12.27;;;6.00;;
12896;SDS011;6516;35.028;32.372;2023-03-21T04:13:54;14.43;;;6.47;;
12896;SDS011;6516;35.028;32.372;2023-03-21T04:16:21;11.77;;;5.78;;
12896;SDS011;6516;35.028;32.372;2023-03-21T04:18:50;12.50;;;5.78;;
12896;SDS011;6516;35.028;32.372;2023-03-21T04:21:18;13.85;;;5.90;;
12896;SDS011;6516;35.028;32.372;2023-03-21T04:23:46;13.53;;;6.27;;
12896;SDS011;6516;35.028;32.372;2023-03-21T04:26:13;15.45;;;6.53;;
12896;SDS011;6516;35.028;32.372;2023-03-21T04:28:41;11.52;;;6.00;;
12896;SDS011;6516;35.028;32.372;2023-03-21T04:31:10;14.68;;;7.15;;
12896;SDS011;6516;35.028;32.372;2023-03-21T04:33:38;14.23;;;7.32;;
12896;SDS011;6516;35.028;32.372;2023-03-21T04:36:07;15.13;;;7.63;;
12896;SDS011;6516;35.028;32.372;2023-03-21T04:38:51;13.98;;;6.95;;
12896;SDS011;6516;35.028;32.372;2023-03-21T04:41:21;16.40;;;7.15;;
12896;SDS011;6516;35.028;32.372;2023-03-21T04:43:49;11.68;;;6.45;;
12896;SDS011;6516;35.028;32.372;2023-03-21T04:46:18;16.33;;;7.00;;
12896;SDS011;6516;35.028;32.372;2023-03-21T04:48:46;20.13;;;7.83;;
12896;SDS011;6516;35.028;32.372;2023-03-21T04:51:14;16.20;;;7.40;;
12896;SDS011;6516;35.028;32.372;2023-03-21T04:53:42;15.80;;;8.00;;
12896;SDS011;6516;35.028;32.372;2023-03-21T04:56:13;17.08;;;8.52;;
12896;SDS011;6516;35.028;32.372;2023-03-21T04:58:41;16.98;;;6.82;;
12896;SDS011;6516;35.028;32.372;2023-03-21T05:01:09;15.20;;;6.97;;
12896;SDS011;6516;35.028;32.372;2023-03-21T05:03:40;11.63;;;6.88;;
12896;SDS011;6516;35.028;32.372;2023-03-21T05:06:08;13.80;;;6.43;;
12896;SDS011;6516;35.028;32.372;2023-03-21T05:08:36;13.05;;;6.43;;
12896;SDS011;6516;35.028;32.372;2023-03-21T05:11:04;13.68;;;6.47;;
12896;SDS011;6516;35.028;32.372;2023-03-21T05:13:32;16.50;;;6.30;;
12896;SDS011;6516;35.028;32.372;2023-03-21T05:16:00;13.45;;;5.50;;
12896;SDS011;6516;35.028;32.372;2023-03-21T05:18:27;12.45;;;6.32;;
12896;SDS011;6516;35.028;32.372;2023-03-21T05:21:00;13.55;;;6.50;;
12896;SDS011;6516;35.028;32.372;2023-03-21T05:23:28;11.10;;;6.43;;
12896;SDS011;6516;35.028;32.372;2023-03-21T05:25:56;15.50;;;7.57;;
12896;SDS011;6516;35.028;32.372;2023-03-21T05:28:24;11.35;;;6.47;;
12896;SDS011;6516;35.028;32.372;2023-03-21T05:30:55;11.13;;;6.10;;
12896;SDS011;6516;35.028;32.372;2023-03-21T05:33:23;13.38;;;6.20;;
12896;SDS011;6516;35.028;32.372;2023-03-21T05:35:51;10.23;;;6.60;;
12896;SDS011;6516;35.028;32.372;2023-03-21T05:38:21;11.00;;;6.13;;
12896;SDS011;6516;35.028;32.372;2023-03-21T05:40:49;13.30;;;6.07;;
12896;SDS011;6516;35.028;32.372;2023-03-21T05:43:17;10.25;;;6.05;;
12896;SDS011;6516;35.028;32.372;2023-03-21T05:45:45;10.65;;;5.88;;
12896;SDS011;6516;35.028;32.372;2023-03-21T05:48:13;9.88;;;5.68;;
12896;SDS011;6516;35.028;32.372;2023-03-21T05:50:41;9.13;;;5.33;;
12896;SDS011;6516;35.028;32.372;2023-03-21T05:53:10;9.45;;;5.50;;
12896;SDS011;6516;35.028;32.372;2023-03-21T05:55:39;8.85;;;4.90;;
12896;SDS011;6516;35.028;32.372;2023-03-21T05:58:07;8.80;;;4.90;;
12896;SDS011;6516;35.028;32.372;2023-03-21T06:00:38;8.85;;;5.15;;
12896;SDS011;6516;35.028;32.372;2023-03-21T06:03:06;9.43;;;5.03;;
12896;SDS011;6516;35.028;32.372;2023-03-21T06:05:34;8.93;;;4.80;;
12896;SDS011;6516;35.028;32.372;2023-03-21T06:08:02;10.68;;;5.00;;
12896;SDS011;6516;35.028;32.372;2023-03-21T06:10:30;10.05;;;4.78;;
12896;SDS011;6516;35.028;32.372;2023-03-21T06:12:59;9.38;;;5.03;;
12896;SDS011;6516;35.028;32.372;2023-03-21T06:15:27;9.37;;;4.30;;
12896;SDS011;6516;35.028;32.372;2023-03-21T06:17:55;9.23;;;4.30;;
12896;SDS011;6516;35.028;32.372;2023-03-21T06:20:23;7.38;;;4.50;;
12896;SDS011;6516;35.028;32.372;2023-03-21T06:22:50;9.77;;;4.65;;
12896;SDS011;6516;35.028;32.372;2023-03-21T06:25:18;8.20;;;4.78;;
12896;SDS011;6516;35.028;32.372;2023-03-21T06:27:46;10.50;;;4.67;;
12896;SDS011;6516;35.028;32.372;2023-03-21T06:32:45;9.63;;;4.10;;
12896;SDS011;6516;35.028;32.372;2023-03-21T06:35:13;8.15;;;4.03;;
12896;SDS011;6516;35.028;32.372;2023-03-21T06:37:41;9.25;;;4.50;;
12896;SDS011;6516;35.028;32.372;2023-03-21T06:40:10;10.60;;;3.93;;
12896;SDS011;6516;35.028;32.372;2023-03-21T06:42:38;8.55;;;4.15;;
12896;SDS011;6516;35.028;32.372;2023-03-21T06:45:06;8.10;;;4.10;;
12896;SDS011;6516;35.028;32.372;2023-03-21T06:47:36;8.65;;;4.07;;
12896;SDS011;6516;35.028;32.372;2023-03-21T06:50:05;8.20;;;4.03;;
12896;SDS011;6516;35.028;32.372;2023-03-21T06:52:33;7.63;;;3.93;;
12896;SDS011;6516;35.028;32.372;2023-03-21T06:55:01;9.75;;;4.00;;
12896;SDS011;6516;35.028;32.372;2023-03-21T06:57:29;8.85;;;4.18;;
12896;SDS011;6516;35.028;32.372;2023-03-21T06:59:56;7.65;;;3.83;;
12896;SDS011;6516;35.028;32.372;2023-03-21T07:02:25;8.32;;;3.63;;
12896;SDS011;6516;35.028;32.372;2023-03-21T07:04:54;7.57;;;3.50;;
12896;SDS011;6516;35.028;32.372;2023-03-21T07:07:23;9.45;;;3.50;;
12896;SDS011;6516;35.028;32.372;2023-03-21T07:09:53;8.45;;;3.72;;
12896;SDS011;6516;35.028;32.372;2023-03-21T07:12:21;8.40;;;3.60;;
12896;SDS011;6516;35.028;32.372;2023-03-21T07:14:50;5.90;;;3.20;;
12896;SDS011;6516;35.028;32.372;2023-03-21T07:17:17;9.33;;;3.60;;
12896;SDS011;6516;35.028;32.372;2023-03-21T07:19:45;7.30;;;3.30;;
12896;SDS011;6516;35.028;32.372;2023-03-21T07:22:14;7.97;;;3.35;;
12896;SDS011;6516;35.028;32.372;2023-03-21T07:24:42;8.85;;;3.33;;
12896;SDS011;6516;35.028;32.372;2023-03-21T07:27:12;8.32;;;3.40;;
12896;SDS011;6516;35.028;32.372;2023-03-21T07:29:40;6.70;;;3.27;;
12896;SDS011;6516;35.028;32.372;2023-03-21T07:32:08;7.38;;;3.05;;
12896;SDS011;6516;35.028;32.372;2023-03-21T07:34:36;6.78;;;3.00;;
12896;SDS011;6516;35.028;32.372;2023-03-21T07:37:04;7.22;;;3.10;;
12896;SDS011;6516;35.028;32.372;2023-03-21T07:39:34;6.68;;;2.83;;
12896;SDS011;6516;35.028;32.372;2023-03-21T07:42:02;8.23;;;2.90;;
12896;SDS011;6516;35.028;32.372;2023-03-21T07:44:30;8.77;;;3.40;;
12896;SDS011;6516;35.028;32.372;2023-03-21T07:46:59;7.70;;;2.97;;
12896;SDS011;6516;35.028;32.372;2023-03-21T07:49:26;7.00;;;3.03;;
12896;SDS011;6516;35.028;32.372;2023-03-21T07:51:54;7.78;;;3.30;;
12896;SDS011;6516;35.028;32.372;2023-03-21T07:54:23;6.80;;;3.00;;
12896;SDS011;6516;35.028;32.372;2023-03-21T07:56:54;7.18;;;3.08;;
12896;SDS011;6516;35.028;32.372;2023-03-21T07:59:22;8.18;;;3.40;;
12896;SDS011;6516;35.028;32.372;2023-03-21T08:01:50;7.75;;;3.13;;
12896;SDS011;6516;35.028;32.372;2023-03-21T08:04:19;6.88;;;3.08;;
12896;SDS011;6516;35.028;32.372;2023-03-21T08:06:47;8.70;;;3.27;;
12896;SDS011;6516;35.028;32.372;2023-03-21T08:09:19;7.68;;;3.40;;
12896;SDS011;6516;35.028;32.372;2023-03-21T08:11:47;8.00;;;2.88;;
12896;SDS011;6516;35.028;32.372;2023-03-21T08:14:16;8.23;;;3.42;;
12896;SDS011;6516;35.028;32.372;2023-03-21T08:16:44;8.85;;;3.40;;
12896;SDS011;6516;35.028;32.372;2023-03-21T08:19:11;7.47;;;3.17;;
12896;SDS011;6516;35.028;32.372;2023-03-21T08:21:43;7.93;;;3.22;;
12896;SDS011;6516;35.028;32.372;2023-03-21T08:24:10;7.22;;;3.20;;
12896;SDS011;6516;35.028;32.372;2023-03-21T08:26:38;9.18;;;3.83;;
12896;SDS011;6516;35.028;32.372;2023-03-21T08:29:07;9.48;;;3.90;;
12896;SDS011;6516;35.028;32.372;2023-03-21T08:31:38;6.93;;;3.17;;
12896;SDS011;6516;35.028;32.372;2023-03-21T08:34:06;9.75;;;3.60;;
12896;SDS011;6516;35.028;32.372;2023-03-21T08:36:34;10.50;;;3.53;;
12896;SDS011;6516;35.028;32.372;2023-03-21T08:39:03;8.43;;;3.72;;
12896;SDS011;6516;35.028;32.372;2023-03-21T08:41:31;6.35;;;3.65;;
12896;SDS011;6516;35.028;32.372;2023-03-21T08:44:00;8.80;;;3.47;;
12896;SDS011;6516;35.028;32.372;2023-03-21T08:46:28;10.10;;;3.72;;
12896;SDS011;6516;35.028;32.372;2023-03-21T08:48:58;9.13;;;3.80;;
12896;SDS011;6516;35.028;32.372;2023-03-21T08:51:25;9.02;;;4.10;;
12896;SDS011;6516;35.028;32.372;2023-03-21T08:53:53;8.25;;;3.45;;
12896;SDS011;6516;35.028;32.372;2023-03-21T08:56:21;16.67;;;4.53;;
12896;SDS011;6516;35.028;32.372;2023-03-21T08:58:49;8.02;;;3.58;;
12896;SDS011;6516;35.028;32.372;2023-03-21T09:01:17;7.90;;;3.10;;
12896;SDS011;6516;35.028;32.372;2023-03-21T09:03:45;5.88;;;3.15;;
12896;SDS011;6516;35.028;32.372;2023-03-21T09:06:14;8.85;;;3.28;;
12896;SDS011;6516;35.028;32.372;2023-03-21T09:08:42;9.47;;;3.30;;
12896;SDS011;6516;35.028;32.372;2023-03-21T09:11:10;5.90;;;3.15;;
12896;SDS011;6516;35.028;32.372;2023-03-21T09:13:38;9.02;;;3.25;;
12896;SDS011;6516;35.028;32.372;2023-03-21T09:16:06;6.72;;;3.35;;
12896;SDS011;6516;35.028;32.372;2023-03-21T09:18:35;8.45;;;3.38;;
12896;SDS011;6516;35.028;32.372;2023-03-21T09:21:15;11.10;;;3.40;;
12896;SDS011;6516;35.028;32.372;2023-03-21T09:23:45;8.05;;;3.45;;
12896;SDS011;6516;35.028;32.372;2023-03-21T09:26:17;7.70;;;2.97;;
12896;SDS011;6516;35.028;32.372;2023-03-21T09:28:45;8.88;;;3.95;;
12896;SDS011;6516;35.028;32.372;2023-03-21T09:31:14;7.38;;;3.78;;
12896;SDS011;6516;35.028;32.372;2023-03-21T09:33:47;9.43;;;3.57;;
12896;SDS011;6516;35.028;32.372;2023-03-21T09:36:17;7.78;;;4.00;;
12896;SDS011;6516;35.028;32.372;2023-03-21T09:38:49;9.27;;;4.05;;
12896;SDS011;6516;35.028;32.372;2023-03-21T09:41:20;8.80;;;4.50;;
12896;SDS011;6516;35.028;32.372;2023-03-21T09:44:09;8.02;;;3.60;;
12896;SDS011;6516;35.028;32.372;2023-03-21T09:47:03;7.63;;;3.43;;
12896;SDS011;6516;35.028;32.372;2023-03-21T09:49:45;8.80;;;3.40;;
12896;SDS011;6516;35.028;32.372;2023-03-21T09:52:20;6.68;;;3.40;;
12896;SDS011;6516;35.028;32.372;2023-03-21T09:54:53;7.88;;;3.80;;
12896;SDS011;6516;35.028;32.372;2023-03-21T09:57:24;8.00;;;3.50;;
12896;SDS011;6516;35.028;32.372;2023-03-21T09:59:58;8.20;;;3.50;;
12896;SDS011;6516;35.028;32.372;2023-03-21T10:02:36;7.28;;;3.38;;
12896;SDS011;6516;35.028;32.372;2023-03-21T10:05:12;9.63;;;3.25;;
12896;SDS011;6516;35.028;32.372;2023-03-21T10:07:53;10.52;;;3.65;;
12896;SDS011;6516;35.028;32.372;2023-03-21T10:10:30;9.27;;;3.80;;
12896;SDS011;6516;35.028;32.372;2023-03-21T10:13:02;9.70;;;3.90;;
12896;SDS011;6516;35.028;32.372;2023-03-21T10:15:37;8.68;;;3.05;;
12896;SDS011;6516;35.028;32.372;2023-03-21T10:18:06;7.55;;;3.20;;
12896;SDS011;6516;35.028;32.372;2023-03-21T10:20:40;8.02;;;3.05;;
12896;SDS011;6516;35.028;32.372;2023-03-21T10:23:12;8.57;;;3.40;;
12896;SDS011;6516;35.028;32.372;2023-03-21T10:25:42;7.30;;;2.90;;
12896;SDS011;6516;35.028;32.372;2023-03-21T10:28:15;8.48;;;3.60;;
12896;SDS011;6516;35.028;32.372;2023-03-21T10:30:47;8.27;;;2.85;;
12896;SDS011;6516;35.028;32.372;2023-03-21T10:33:18;7.63;;;2.78;;
12896;SDS011;6516;35.028;32.372;2023-03-21T10:35:51;6.07;;;3.20;;
12896;SDS011;6516;35.028;32.372;2023-03-21T10:38:24;6.33;;;3.37;;
12896;SDS011;6516;35.028;32.372;2023-03-21T10:40:53;7.05;;;3.22;;
12896;SDS011;6516;35.028;32.372;2023-03-21T10:43:31;8.30;;;3.30;;
12896;SDS011;6516;35.028;32.372;2023-03-21T10:46:06;6.55;;;2.78;;
12896;SDS011;6516;35.028;32.372;2023-03-21T10:48:38;8.70;;;3.20;;
12896;SDS011;6516;35.028;32.372;2023-03-21T10:51:11;5.43;;;2.83;;
12896;SDS011;6516;35.028;32.372;2023-03-21T10:53:46;6.43;;;2.78;;
12896;SDS011;6516;35.028;32.372;2023-03-21T10:56:18;7.82;;;2.60;;
12896;SDS011;6516;35.028;32.372;2023-03-21T10:58:52;8.88;;;3.35;;
12896;SDS011;6516;35.028;32.372;2023-03-21T11:01:25;8.32;;;2.88;;
12896;SDS011;6516;35.028;32.372;2023-03-21T11:03:56;6.93;;;2.80;;
12896;SDS011;6516;35.028;32.372;2023-03-21T11:06:28;5.57;;;2.33;;
12896;SDS011;6516;35.028;32.372;2023-03-21T11:09:02;5.97;;;2.25;;
12896;SDS011;6516;35.028;32.372;2023-03-21T11:11:38;10.00;;;3.00;;
12896;SDS011;6516;35.028;32.372;2023-03-21T11:14:12;7.78;;;2.70;;
12896;SDS011;6516;35.028;32.372;2023-03-21T11:16:53;4.63;;;2.00;;
12896;SDS011;6516;35.028;32.372;2023-03-21T11:19:25;5.60;;;2.00;;
12896;SDS011;6516;35.028;32.372;2023-03-21T11:21:57;5.13;;;2.17;;
12896;SDS011;6516;35.028;32.372;2023-03-21T11:24:31;5.13;;;2.20;;
12896;SDS011;6516;35.028;32.372;2023-03-21T11:27:00;5.57;;;2.47;;
12896;SDS011;6516;35.028;32.372;2023-03-21T11:29:33;7.23;;;2.70;;
12896;SDS011;6516;35.028;32.372;2023-03-21T11:32:08;7.00;;;2.40;;
12896;SDS011;6516;35.028;32.372;2023-03-21T11:34:41;6.38;;;2.22;;
12896;SDS011;6516;35.028;32.372;2023-03-21T11:37:20;5.30;;;2.40;;
12896;SDS011;6516;35.028;32.372;2023-03-21T11:40:03;5.57;;;2.50;;
12896;SDS011;6516;35.028;32.372;2023-03-21T11:42:42;7.73;;;2.90;;
12896;SDS011;6516;35.028;32.372;2023-03-21T11:45:13;7.93;;;2.90;;
12896;SDS011;6516;35.028;32.372;2023-03-21T11:47:44;4.63;;;2.40;;
12896;SDS011;6516;35.028;32.372;2023-03-21T11:50:18;4.47;;;2.33;;
12896;SDS011;6516;35.028;32.372;2023-03-21T11:52:56;6.88;;;2.30;;
12896;SDS011;6516;35.028;32.372;2023-03-21T11:55:51;6.83;;;3.37;;
12896;SDS011;6516;35.028;32.372;2023-03-21T11:58:33;8.95;;;3.67;;
12896;SDS011;6516;35.028;32.372;2023-03-21T12:01:13;6.70;;;2.55;;
12896;SDS011;6516;35.028;32.372;2023-03-21T12:04:03;7.35;;;2.97;;
12896;SDS011;6516;35.028;32.372;2023-03-21T12:06:47;6.95;;;2.70;;
12896;SDS011;6516;35.028;32.372;2023-03-21T12:12:13;7.07;;;2.72;;
12896;SDS011;6516;35.028;32.372;2023-03-21T12:14:56;7.28;;;2.60;;
12896;SDS011;6516;35.028;32.372;2023-03-21T12:17:34;5.82;;;2.55;;
12896;SDS011;6516;35.028;32.372;2023-03-21T12:20:28;5.90;;;2.63;;
12896;SDS011;6516;35.028;32.372;2023-03-21T12:26:11;8.98;;;2.78;;
12896;SDS011;6516;35.028;32.372;2023-03-21T12:28:53;7.30;;;3.25;;
12896;SDS011;6516;35.028;32.372;2023-03-21T12:31:40;7.07;;;2.90;;
12896;SDS011;6516;35.028;32.372;2023-03-21T12:34:28;10.82;;;4.00;;
12896;SDS011;6516;35.028;32.372;2023-03-21T12:37:21;8.07;;;3.43;;
12896;SDS011;6516;35.028;32.372;2023-03-21T12:40:00;10.38;;;3.80;;
12896;SDS011;6516;35.028;32.372;2023-03-21T12:42:40;10.15;;;3.80;;
12896;SDS011;6516;35.028;32.372;2023-03-21T12:45:25;9.07;;;3.65;;
12896;SDS011;6516;35.028;32.372;2023-03-21T12:47:59;8.57;;;4.05;;
12896;SDS011;6516;35.028;32.372;2023-03-21T12:50:38;9.13;;;3.90;;
12896;SDS011;6516;35.028;32.372;2023-03-21T12:53:10;8.15;;;4.00;;
12896;SDS011;6516;35.028;32.372;2023-03-21T12:55:53;8.35;;;3.60;;
12896;SDS011;6516;35.028;32.372;2023-03-21T12:58:25;9.23;;;4.50;;
12896;SDS011;6516;35.028;32.372;2023-03-21T13:00:58;9.77;;;3.80;;
12896;SDS011;6516;35.028;32.372;2023-03-21T13:03:30;7.90;;;3.67;;
12896;SDS011;6516;35.028;32.372;2023-03-21T13:06:03;9.20;;;4.22;;
12896;SDS011;6516;35.028;32.372;2023-03-21T13:08:34;9.23;;;3.97;;
12896;SDS011;6516;35.028;32.372;2023-03-21T13:11:06;9.90;;;4.13;;
12896;SDS011;6516;35.028;32.372;2023-03-21T13:13:41;11.18;;;3.70;;
12896;SDS011;6516;35.028;32.372;2023-03-21T13:16:18;8.03;;;3.50;;
12896;SDS011;6516;35.028;32.372;2023-03-21T13:18:53;9.82;;;3.90;;
12896;SDS011;6516;35.028;32.372;2023-03-21T13:21:42;9.52;;;3.90;;
12896;SDS011;6516;35.028;32.372;2023-03-21T13:24:18;10.40;;;4.00;;
12896;SDS011;6516;35.028;32.372;2023-03-21T13:26:57;7.40;;;3.45;;
12896;SDS011;6516;35.028;32.372;2023-03-21T13:29:32;7.97;;;3.37;;
12896;SDS011;6516;35.028;32.372;2023-03-21T13:32:14;9.30;;;3.30;;
12896;SDS011;6516;35.028;32.372;2023-03-21T13:34:53;7.90;;;3.65;;
12896;SDS011;6516;35.028;32.372;2023-03-21T13:37:22;8.13;;;3.80;;
12896;SDS011;6516;35.028;32.372;2023-03-21T13:39:58;7.40;;;3.63;;
12896;SDS011;6516;35.028;32.372;2023-03-21T13:42:33;6.67;;;3.47;;
12896;SDS011;6516;35.028;32.372;2023-03-21T13:45:05;6.70;;;3.38;;
12896;SDS011;6516;35.028;32.372;2023-03-21T13:47:40;7.38;;;3.22;;
12896;SDS011;6516;35.028;32.372;2023-03-21T13:50:26;8.48;;;3.58;;
12896;SDS011;6516;35.028;32.372;2023-03-21T13:53:10;6.95;;;3.20;;
12896;SDS011;6516;35.028;32.372;2023-03-21T13:55:58;10.03;;;3.60;;
12896;SDS011;6516;35.028;32.372;2023-03-21T13:58:36;7.28;;;3.50;;
12896;SDS011;6516;35.028;32.372;2023-03-21T14:01:11;8.27;;;3.28;;
12896;SDS011;6516;35.028;32.372;2023-03-21T14:03:57;8.27;;;3.65;;
12896;SDS011;6516;35.028;32.372;2023-03-21T14:06:30;11.05;;;4.20;;
12896;SDS011;6516;35.028;32.372;2023-03-21T14:09:02;8.03;;;3.57;;
12896;SDS011;6516;35.028;32.372;2023-03-21T14:11:31;8.40;;;3.78;;
12896;SDS011;6516;35.028;32.372;2023-03-21T14:14:00;8.75;;;4.00;;
12896;SDS011;6516;35.028;32.372;2023-03-21T14:16:30;9.35;;;4.20;;
12896;SDS011;6516;35.028;32.372;2023-03-21T14:19:02;7.28;;;3.95;;
12896;SDS011;6516;35.028;32.372;2023-03-21T14:21:32;7.93;;;4.50;;
12896;SDS011;6516;35.028;32.372;2023-03-21T14:24:02;10.73;;;4.78;;
12896;SDS011;6516;35.028;32.372;2023-03-21T14:26:33;7.35;;;4.05;;
12896;SDS011;6516;35.028;32.372;2023-03-21T14:29:07;11.00;;;4.72;;
12896;SDS011;6516;35.028;32.372;2023-03-21T14:31:44;10.65;;;4.20;;
12896;SDS011;6516;35.028;32.372;2023-03-21T14:34:14;11.37;;;4.60;;
12896;SDS011;6516;35.028;32.372;2023-03-21T14:36:44;10.75;;;4.50;;
12896;SDS011;6516;35.028;32.372;2023-03-21T14:39:13;11.45;;;4.25;;
12896;SDS011;6516;35.028;32.372;2023-03-21T14:41:45;8.95;;;3.90;;
12896;SDS011;6516;35.028;32.372;2023-03-21T14:44:16;12.35;;;4.20;;
12896;SDS011;6516;35.028;32.372;2023-03-21T14:46:52;12.83;;;4.33;;
12896;SDS011;6516;35.028;32.372;2023-03-21T14:49:29;11.40;;;4.20;;
12896;SDS011;6516;35.028;32.372;2023-03-21T14:51:58;11.50;;;5.13;;
12896;SDS011;6516;35.028;32.372;2023-03-21T14:54:28;11.85;;;4.97;;
12896;SDS011;6516;35.028;32.372;2023-03-21T14:56:58;12.75;;;4.72;;
12896;SDS011;6516;35.028;32.372;2023-03-21T14:59:29;10.87;;;4.73;;
12896;SDS011;6516;35.028;32.372;2023-03-21T15:02:01;15.27;;;5.60;;
12896;SDS011;6516;35.028;32.372;2023-03-21T15:04:34;13.80;;;5.38;;
12896;SDS011;6516;35.028;32.372;2023-03-21T15:07:02;11.65;;;5.25;;
12896;SDS011;6516;35.028;32.372;2023-03-21T15:09:32;11.85;;;5.00;;
12896;SDS011;6516;35.028;32.372;2023-03-21T15:12:01;10.90;;;4.93;;
12896;SDS011;6516;35.028;32.372;2023-03-21T15:14:34;15.18;;;5.55;;
12896;SDS011;6516;35.028;32.372;2023-03-21T15:17:03;13.38;;;4.88;;
12896;SDS011;6516;35.028;32.372;2023-03-21T15:19:36;12.80;;;5.03;;
12896;SDS011;6516;35.028;32.372;2023-03-21T15:22:08;12.48;;;5.10;;
12896;SDS011;6516;35.028;32.372;2023-03-21T15:24:43;13.97;;;5.90;;
12896;SDS011;6516;35.028;32.372;2023-03-21T15:27:14;14.07;;;6.60;;